THY11J LTFM-FACT
Flight info
| Callsign | THY11J |
|---|---|
| Flight time | N/A |
| Altitude | 35000 |
| Route | RATVU UT35 TEKDO DCT TOMBI M855 RASDA A16 CVO A727 NABED/N0495F370 A727 LXR P751 TOMRU DCT KSL/N0492F380 DCT ALRAP/N0493F370 UT124 GWZ/N0491F380 UM308 RUDOL/N0486F390 UM308 LOTAS/N0487F380 UM441 LOSIN UP312 MB UR779 ITKAN/N0483F400 UR779 VLS UT916 IMKIV UQ23 DUMDO UZ26 ERDAS ERDAS1C |
| Aircraft | A359/H-SDE2E3FGHIRWY/LB1 |
Departure
| Time | N/A |
|---|---|
| Airport | İstanbul Airport (LTFM) |
Arrival
| Time | 2026-05-03 20:37 |
|---|---|
| Airport | Cape Town International Airport (FACT) |
| Time | Latitude | Longitude | Altitude | Speed | Heading |
|---|---|---|---|---|---|
| 2026-05-03 20:28 | -34.15594 | 18.80585 | 6069 ft | 291 kts | 169° |
| 2026-05-03 20:28 | -34.17663 | 18.81228 | 4633 ft | 325 kts | 169° |
| 2026-05-03 20:28 | -34.19925 | 18.81789 | 3995 ft | 327 kts | 180° |
| 2026-05-03 20:28 | -34.22062 | 18.81650 | 4279 ft | 289 kts | 194° |
| 2026-05-03 20:29 | -34.23804 | 18.80836 | 4393 ft | 254 kts | 222° |
| 2026-05-03 20:29 | -34.24906 | 18.79313 | 4363 ft | 235 kts | 251° |
| 2026-05-03 20:29 | -34.25377 | 18.77480 | 4338 ft | 226 kts | 266° |
| 2026-05-03 20:29 | -34.25471 | 18.75563 | 4328 ft | 229 kts | 278° |
| 2026-05-03 20:30 | -34.25080 | 18.73750 | 4331 ft | 221 kts | 298° |
| 2026-05-03 20:30 | -34.24059 | 18.72386 | 4105 ft | 221 kts | 321° |
| 2026-05-03 20:30 | -34.22761 | 18.71375 | 3655 ft | 223 kts | 326° |
| 2026-05-03 20:30 | -34.21472 | 18.70341 | 3324 ft | 220 kts | 322° |
| 2026-05-03 20:31 | -34.20268 | 18.69292 | 3241 ft | 207 kts | 322° |
| 2026-05-03 20:31 | -34.19108 | 18.68333 | 3204 ft | 201 kts | 324° |
| 2026-05-03 20:31 | -34.17909 | 18.67463 | 3156 ft | 202 kts | 328° |
| 2026-05-03 20:31 | -34.16647 | 18.66721 | 3079 ft | 203 kts | 334° |
| 2026-05-03 20:32 | -34.15314 | 18.66185 | 2979 ft | 198 kts | 339° |
| 2026-05-03 20:32 | -34.14023 | 18.65757 | 2906 ft | 187 kts | 340° |
| 2026-05-03 20:32 | -34.12799 | 18.65370 | 2821 ft | 176 kts | 340° |
| 2026-05-03 20:32 | -34.11660 | 18.65011 | 2730 ft | 163 kts | 340° |
| 2026-05-03 20:33 | -34.10599 | 18.64667 | 2575 ft | 154 kts | 340° |
| 2026-05-03 20:33 | -34.09589 | 18.64333 | 2395 ft | 146 kts | 340° |
| 2026-05-03 20:33 | -34.08652 | 18.64037 | 2198 ft | 132 kts | 338° |
| 2026-05-03 20:33 | -34.07796 | 18.63764 | 2028 ft | 123 kts | 339° |
| 2026-05-03 20:34 | -34.07014 | 18.63514 | 1878 ft | 115 kts | 339° |
| 2026-05-03 20:34 | -34.06249 | 18.63269 | 1726 ft | 114 kts | 341° |
| 2026-05-03 20:34 | -34.05481 | 18.63023 | 1532 ft | 117 kts | 341° |
| 2026-05-03 20:34 | -34.04681 | 18.62768 | 1395 ft | 122 kts | 342° |
| 2026-05-03 20:35 | -34.03854 | 18.62504 | 1223 ft | 123 kts | 345° |
| 2026-05-03 20:35 | -34.03023 | 18.62244 | 1083 ft | 124 kts | 344° |
| 2026-05-03 20:35 | -34.02203 | 18.61979 | 861 ft | 120 kts | 345° |
| 2026-05-03 20:35 | -34.01389 | 18.61717 | 758 ft | 123 kts | 345° |
| 2026-05-03 20:36 | -34.00559 | 18.61446 | 602 ft | 123 kts | 346° |
| 2026-05-03 20:36 | -33.99725 | 18.61189 | 410 ft | 123 kts | 346° |
| 2026-05-03 20:36 | -33.98925 | 18.60931 | 239 ft | 121 kts | 346° |
| 2026-05-03 20:36 | -33.98112 | 18.60679 | 162 ft | 113 kts | 346° |
| 2026-05-03 20:37 | -33.97462 | 18.60472 | 158 ft | 82 kts | 345° |
| 2026-05-03 20:37 | -33.96975 | 18.60318 | 162 ft | 64 kts | 346° |
| 2026-05-03 20:37 | -33.96623 | 18.60208 | 163 ft | 41 kts | 345° |
| 2026-05-03 20:37 | -33.96361 | 18.60124 | 160 ft | 37 kts | 345° |
| 2026-05-03 20:38 | -33.96134 | 18.60052 | 160 ft | 27 kts | 344° |
| 2026-05-03 20:38 | -33.96049 | 18.59949 | 160 ft | 17 kts | 248° |
| 2026-05-03 20:38 | -33.96090 | 18.59892 | 160 ft | 0 kts | 223° |
| 2026-05-03 20:39 | -33.96092 | 18.59890 | 160 ft | 2 kts | 223° |
| 2026-05-03 20:39 | -33.96117 | 18.59861 | 160 ft | 9 kts | 223° |
| 2026-05-03 20:39 | -33.96177 | 18.59789 | 159 ft | 15 kts | 225° |
| 2026-05-03 20:40 | -33.96252 | 18.59729 | 160 ft | 13 kts | 187° |
| 2026-05-03 20:40 | -33.96347 | 18.59744 | 160 ft | 15 kts | 169° |
| 2026-05-03 20:40 | -33.96458 | 18.59768 | 160 ft | 17 kts | 169° |
| 2026-05-03 20:40 | -33.96575 | 18.59798 | 160 ft | 11 kts | 164° |
| 2026-05-03 20:41 | -33.96623 | 18.59802 | 160 ft | 4 kts | 211° |
| 2026-05-03 20:41 | -33.96635 | 18.59777 | 160 ft | 3 kts | 248° |
| 2026-05-03 20:41 | -33.96636 | 18.59760 | 160 ft | 1 kts | 260° |
| 2026-05-03 20:41 | -33.96638 | 18.59753 | 160 ft | 3 kts | 256° |
| 2026-05-03 20:42 | -33.96641 | 18.59742 | 160 ft | 0 kts | 255° |
| 2026-05-03 20:42 | -33.96643 | 18.59729 | 160 ft | 1 kts | 255° |
| 2026-05-03 20:42 | -33.96644 | 18.59727 | 160 ft | 0 kts | 255° |
| 2026-05-03 20:42 | -33.96645 | 18.59723 | 160 ft | 0 kts | 255° |
| 2026-05-03 20:43 | -33.96645 | 18.59721 | 160 ft | 0 kts | 255° |